ADDS METAR Data INFO
IDs: Format: Raw Decoded Include TAF

Data at: 0846 UTC 22 Feb 2018

KADF 220756Z AUTO 34005KT 10SM OVC008 06/06 A3028 RMK AO2 SLP260 T00610056
KADF 220656Z AUTO 36005KT 10SM OVC008 06/06 A3024 RMK AO2 RAE31 SLP246 P0001 T00610056
KADF 220556Z AUTO 08008KT 10SM -RA BKN008 BKN050 OVC110 06/05 A3022 RMK AO2 SLP238 P0002 60072 T00560050 10094 20056 401830056 58035
KADF 220534Z AUTO 08009G16KT 10SM -RA BKN008 BKN033 OVC110 06/05 A3023 RMK AO2 CIG 007V012 PRESFR P0002
KADF 220456Z AUTO 04008G15KT 10SM -RA FEW046 BKN110 07/06 A3030 RMK AO2 SLP265 P0003 T00670061
KADF 220433Z AUTO 05008KT 10SM -RA BKN009 BKN045 BKN110 07/07 A3031 RMK AO2 P0000
KADF 220421Z AUTO 02010G14KT 10SM -RA SCT009 BKN110 08/07 A3032 RMK AO2 P0000
KADF 220356Z AUTO 02009KT 10SM -RA FEW011 BKN110 08/07 A3030 RMK AO2 SLP267 P0006 T00780072
KADF 212356Z AUTO 04007KT 9SM RA OVC009 11/10 A3022 RMK AO2 CIG 007V012 SLP238 P0015 60064 T01060100 10106 20083 55006
KADF 212256Z AUTO 05005KT 10SM -RA OVC009 10/09 A3019 RMK AO2 SLP229 P0005 T01000094
KADF 212156Z AUTO 08010G17KT 10SM -RA BKN007 OVC100 09/08 A3017 RMK AO2 SLP222 P0006 T00890083
KADF 212056Z AUTO 05007KT 10SM RA OVC007 09/08 A3024 RMK AO2 PRESFR SLP243 P0009 60038 T00890083 58023
KADF 211956Z AUTO 05006KT 10SM -RA OVC007 09/08 A3028 RMK AO2 CIG 004V009 SLP260 P0013 T00890083
KADF 211856Z AUTO 03008KT 10SM RA OVC007 09/08 A3031 RMK AO2 SLP267 P0016 T00890083
KADF 211756Z AUTO 03009KT 10SM RA OVC007 09/08 A3030 RMK AO2 SLP266 P0014 60115 T00890083 10122 20089 56025
KADF 211656Z AUTO 04008KT 9SM RA OVC007 09/08 A3032 RMK AO2 SLP273 P0019 T00890083
KADF 211611Z AUTO VRB06KT 8SM RA BKN005 OVC090 09/09 A3033 RMK AO2 P0006
KADF 211556Z AUTO 03013G16KT 7SM RA OVC090 09/09 A3030 RMK AO2 SLP266 P0030 T00940089
KADF 211523Z AUTO 04007KT 9SM RA FEW006 BKN070 OVC090 09/09 A3035 RMK AO2 LTG DSNT SE P0015
KADF 211456Z AUTO 00000KT 4SM +RA BR BKN008 OVC070 10/09 A3038 RMK AO2 CIG 005V011 PRESRR SLP290 P0028 60052 T01000094 53051
KADF 211356Z AUTO 03008KT 5SM +RA BR BKN006 OVC029 11/11 A3027 RMK AO2 LTG DSNT S SLP253 P0020 T01110106
KADF 211256Z AUTO VRB06KT 10SM -RA OVC006 12/11 A3025 RMK AO2 LTG DSNT W PRESRR SLP246 P0004 T01170111
KADF 210756Z AUTO 01012KT 4SM RA BR SCT023 BKN030 OVC036 16/14 A3010 RMK AO2 LTG DSNT SW AND W RAB0659 SLP196 P0027 T01560144
KADF 210656Z AUTO 34014G19KT 10SM SCT010 BKN018 OVC025 17/16 A3010 RMK AO2 SLP194 T01720161
KADF 210556Z AUTO 00000KT 10SM OVC027 18/18 A3006 RMK AO2 SLP180 60034 T01830183 10239 20183 402610183 53016